Time;durP1;ratioP1;P1;durP2;ratioP2;P2;SDS_P1;SDS_P2;PMS_P1;PMS_P2;Temp;Humidity;BMP_temperature;BMP_pressure;BME280_temperature;BME280_humidity;BME280_pressure;Samples;Min_cycle;Max_cycle;Signal;HPM_P1;HPM_P2
2022/10/15 07:00:17;;;;;;;;;0.00;0.00;;;;;18.45;74.72;100543.13;2398527;23;45454;-96
2022/10/15 07:01:28;;;;;;;;;0.00;0.00;;;;;18.48;74.30;100547.38;2384996;28;45776;-96
2022/10/15 07:02:38;;;;;;;;;1.00;1.00;;;;;18.51;74.45;100548.03;2372314;28;44719;-96
2022/10/15 07:03:49;;;;;;;;;0.00;0.00;;;;;18.52;74.85;100546.22;2384825;28;46229;-87
2022/10/15 07:05:00;;;;;;;;;0.00;0.00;;;;;18.52;74.25;100551.53;2381796;28;44757;-87
2022/10/15 07:06:10;;;;;;;;;0.00;0.00;;;;;18.53;73.93;100548.75;2385120;28;45460;-92
2022/10/15 07:07:20;;;;;;;;;0.00;0.00;;;;;18.56;73.78;100547.69;2377178;28;45348;-94
2022/10/15 07:08:31;;;;;;;;;0.00;0.00;;;;;18.57;73.66;100545.91;2381156;28;46833;-94
2022/10/15 07:09:42;;;;;;;;;0.00;0.00;;;;;18.58;74.17;100551.09;2386636;28;44800;-91
2022/10/15 07:10:53;;;;;;;;;0.00;0.00;;;;;18.59;73.92;100549.28;2384468;28;48549;-96
2022/10/15 07:12:05;;;;;;;;;2.50;0.00;;;;;18.59;73.81;100547.50;2386689;28;45260;-90
2022/10/15 07:13:16;;;;;;;;;0.00;0.00;;;;;18.58;73.51;100551.09;2378034;28;47502;-92
2022/10/15 07:14:26;;;;;;;;;0.00;0.00;;;;;18.59;73.60;100558.13;2373621;28;45264;-91
2022/10/15 07:15:36;;;;;;;;;0.00;0.00;;;;;18.61;73.83;100553.56;2377361;28;45246;-89
2022/10/15 07:16:47;;;;;;;;;0.25;0.00;;;;;18.64;74.48;100555.16;2376653;28;44582;-90
2022/10/15 07:18:00;;;;;;;;;0.75;0.00;;;;;18.65;74.02;100552.38;2386703;28;46320;-89
2022/10/15 07:19:10;;;;;;;;;1.00;0.00;;;;;18.66;74.10;100554.09;2381428;28;45772;-89
2022/10/15 07:20:21;;;;;;;;;0.00;0.00;;;;;18.67;74.28;100550.44;2386476;28;46304;-91
2022/10/15 07:21:32;;;;;;;;;0.00;0.00;;;;;18.72;73.90;100557.25;2392070;28;45170;-90
2022/10/15 07:22:42;;;;;;;;;0.25;0.00;;;;;18.71;73.50;100555.56;2393602;28;45340;-92
2022/10/15 07:23:52;;;;;;;;;0.00;0.00;;;;;18.73;73.99;100553.63;2397415;28;45381;-88
2022/10/15 07:25:03;;;;;;;;;0.50;0.50;;;;;18.75;74.42;100565.03;2380556;28;47035;-90
2022/10/15 07:26:13;;;;;;;;;0.50;0.50;;;;;18.75;74.41;100562.34;2368002;28;45271;-90
2022/10/15 07:27:24;;;;;;;;;0.00;0.00;;;;;18.76;74.21;100556.09;2377052;28;45573;-87
2022/10/15 07:28:34;;;;;;;;;0.25;0.25;;;;;18.79;74.81;100553.22;2389985;28;45195;-88
2022/10/15 07:29:44;;;;;;;;;2.75;1.00;;;;;18.82;74.90;100558.31;2393347;28;46022;-86
2022/10/15 07:31:00;;;;;;;;;0.00;0.00;;;;;18.84;74.41;100560.88;2393927;28;45155;-89
2022/10/15 07:32:11;;;;;;;;;0.75;0.75;;;;;18.86;74.45;100562.47;2392252;28;45517;-88
2022/10/15 07:33:21;;;;;;;;;0.00;0.00;;;;;18.87;74.25;100561.50;2392884;28;45280;-86
2022/10/15 07:34:31;;;;;;;;;1.00;0.50;;;;;18.87;74.23;100558.81;2393621;28;46357;-85
2022/10/15 07:35:41;;;;;;;;;1.00;1.00;;;;;18.91;74.38;100561.28;2393922;28;45353;-86
2022/10/15 07:36:52;;;;;;;;;1.00;0.50;;;;;18.92;74.04;100560.31;2383490;28;48030;-87
2022/10/15 07:38:03;;;;;;;;;0.00;0.00;;;;;18.94;74.22;100569.06;2376958;28;45545;-87
2022/10/15 07:39:13;;;;;;;;;0.00;0.00;;;;;18.95;74.56;100562.75;2386667;28;45349;-87
2022/10/15 07:40:24;;;;;;;;;0.00;0.00;;;;;18.96;74.67;100565.31;2393797;28;45363;-87
2022/10/15 07:41:34;;;;;;;;;0.50;0.25;;;;;18.98;74.23;100565.19;2380904;28;47065;-88
2022/10/15 07:42:51;;;;;;;;;4.75;0.50;;;;;18.98;74.11;100565.19;2382389;28;45187;-89
2022/10/15 07:44:02;;;;;;;;;0.00;0.00;;;;;19.00;74.71;100568.59;2384577;28;47274;-88
2022/10/15 07:45:13;;;;;;;;;0.00;0.00;;;;;19.03;74.64;100572.84;2383427;28;45392;-92
2022/10/15 07:46:23;;;;;;;;;0.00;0.00;;;;;19.04;74.20;100574.56;2375840;28;46218;-90
2022/10/15 07:47:33;;;;;;;;;1.00;0.00;;;;;19.05;74.21;100570.94;2376285;28;45223;-92
2022/10/15 07:48:44;;;;;;;;;0.00;0.00;;;;;19.06;74.78;100573.47;2367910;28;47519;-90
2022/10/15 07:49:55;;;;;;;;;0.00;0.00;;;;;19.09;74.68;100580.41;2385040;28;45276;-88
2022/10/15 07:51:06;;;;;;;;;1.00;0.00;;;;;19.08;74.22;100579.56;2380064;28;47891;-89
2022/10/15 07:52:16;;;;;;;;;0.00;0.00;;;;;19.09;74.34;100575.91;2367992;28;45229;-90
2022/10/15 07:53:27;;;;;;;;;0.00;0.00;;;;;19.09;74.46;100581.25;2382591;28;46226;-84
2022/10/15 07:54:37;;;;;;;;;0.00;0.00;;;;;19.11;74.22;100581.97;2383580;28;45267;-88
2022/10/15 07:55:47;;;;;;;;;0.00;0.00;;;;;19.12;74.67;100582.84;2383790;28;45515;-86
2022/10/15 07:56:58;;;;;;;;;1.75;0.00;;;;;19.15;74.47;100593.28;2387519;28;45449;-85
2022/10/15 07:58:08;;;;;;;;;0.25;0.00;;;;;19.16;74.00;100588.81;2393515;28;46472;-88
2022/10/15 07:59:18;;;;;;;;;0.00;0.00;;;;;19.17;74.27;100585.16;2383291;28;44688;-87
2022/10/15 08:00:29;;;;;;;;;1.00;0.00;;;;;19.19;74.43;100588.59;2384934;28;45404;-88
2022/10/15 08:01:39;;;;;;;;;0.00;0.00;;;;;19.22;74.47;100599.03;2378014;28;45436;-88
2022/10/15 08:02:49;;;;;;;;;0.00;0.00;;;;;19.21;74.48;100600.84;2376511;28;48008;-87
2022/10/15 08:04:00;;;;;;;;;0.00;0.00;;;;;19.21;73.86;100598.19;2381782;28;45397;-90
2022/10/15 08:05:10;;;;;;;;;0.00;0.00;;;;;19.23;73.77;100598.09;2374022;28;47934;-89
2022/10/15 08:06:20;;;;;;;;;0.00;0.00;;;;;19.23;73.79;100595.44;2376240;28;44789;-89
2022/10/15 08:07:31;;;;;;;;;0.50;0.00;;;;;19.25;74.02;100601.50;2376953;28;46882;-89
2022/10/15 08:08:41;;;;;;;;;0.00;0.00;;;;;19.27;74.31;100604.03;2386281;28;45255;-89
2022/10/15 08:09:51;;;;;;;;;1.00;0.00;;;;;19.28;73.58;100608.41;2383643;28;48012;-90
2022/10/15 08:11:12;;;;;;;;;0.00;0.00;;;;;19.29;73.84;100608.28;2377762;28;44735;-89
2022/10/15 08:12:23;;;;;;;;;0.00;0.00;;;;;19.29;74.67;100612.75;2381759;28;45499;-86
2022/10/15 08:13:33;;;;;;;;;0.00;0.00;;;;;19.28;73.93;100611.09;2375682;28;45454;-87
2022/10/15 08:14:43;;;;;;;;;0.00;0.00;;;;;19.28;74.13;100619.94;2384096;28;45463;-86
2022/10/15 08:15:54;;;;;;;;;0.00;0.00;;;;;19.28;74.51;100611.09;2387158;28;45408;-86
2022/10/15 08:17:05;;;;;;;;;0.00;0.00;;;;;19.31;74.27;100602.88;2379652;28;47157;-86
2022/10/15 08:18:15;;;;;;;;;0.00;0.00;;;;;19.32;73.96;100608.09;2381231;28;45256;-85
2022/10/15 08:19:26;;;;;;;;;0.00;0.00;;;;;19.33;74.32;100614.28;2390179;28;46206;-86
2022/10/15 08:20:36;;;;;;;;;0.00;0.00;;;;;19.32;73.51;100615.22;2393368;28;45243;-87
2022/10/15 08:21:47;;;;;;;;;0.00;0.00;;;;;19.32;73.91;100609.88;2392609;28;46199;-85
2022/10/15 08:22:57;;;;;;;;;0.00;0.00;;;;;19.27;73.48;100618.22;2383860;28;45280;-95
2022/10/15 08:24:08;;;;;;;;;0.00;0.00;;;;;19.23;73.85;100620.28;2372036;28;46597;-95
2022/10/15 08:25:18;;;;;;;;;0.00;0.00;;;;;19.21;74.09;100618.69;2386161;28;45168;-84
2022/10/15 08:26:28;;;;;;;;;0.00;0.00;;;;;19.19;74.04;100607.25;2392672;28;45345;-87
2022/10/15 08:27:39;;;;;;;;;2.75;1.75;;;;;19.16;74.32;100607.47;2393518;28;45207;-86
2022/10/15 08:28:49;;;;;;;;;1.00;0.00;;;;;19.14;74.29;100598.72;2388229;28;46276;-84
2022/10/15 08:30:00;;;;;;;;;1.50;1.50;;;;;19.10;74.18;100606.94;2384959;28;45327;-86
2022/10/15 08:31:11;;;;;;;;;1.25;1.25;;;;;19.09;74.29;100607.88;2388066;28;46035;-86
2022/10/15 08:32:21;;;;;;;;;0.00;0.00;;;;;19.09;74.35;100610.53;2393452;28;45281;-87
2022/10/15 08:33:34;;;;;;;;;1.00;0.00;;;;;19.07;74.16;100609.81;2382938;28;47914;-86
2022/10/15 08:34:44;;;;;;;;;0.00;0.00;;;;;19.07;74.52;100611.63;2384168;28;45314;-87
2022/10/15 08:35:54;;;;;;;;;0.50;0.00;;;;;19.03;74.81;100603.00;2382319;28;46941;-85
2022/10/15 08:37:05;;;;;;;;;0.00;0.00;;;;;19.00;74.12;100606.75;2380262;28;45228;-86
2022/10/15 08:38:15;;;;;;;;;0.25;0.25;;;;;19.00;74.69;100611.22;2386193;28;45965;-86
2022/10/15 08:39:25;;;;;;;;;0.50;0.50;;;;;19.00;74.37;100611.22;2393171;28;45459;-84
2022/10/15 08:40:36;;;;;;;;;1.00;1.00;;;;;18.99;74.19;100615.69;2390665;28;45561;-84
2022/10/15 08:41:51;;;;;;;;;1.00;1.00;;;;;18.99;74.35;100612.16;2381277;28;45296;-84
2022/10/15 08:43:03;;;;;;;;;1.00;0.00;;;;;18.97;73.84;100608.75;2386628;28;45499;-85
2022/10/15 08:44:25;;;;;;;;;1.00;1.00;;;;;18.97;73.84;100619.41;2392738;28;44707;-85
2022/10/15 08:45:44;;;;;;;;;0.00;0.00;;;;;18.96;74.07;100620.38;2393137;28;46025;-86
2022/10/15 08:47:03;;;;;;;;;0.00;0.00;;;;;18.96;74.66;100623.06;2383343;28;44693;-85
2022/10/15 08:48:22;;;;;;;;;1.00;1.00;;;;;18.91;74.88;100627.84;2386996;28;45515;-85
2022/10/15 08:49:51;;;;;;;;;0.00;0.00;;;;;18.89;74.94;100626.13;2393076;28;44837;-84
2022/10/15 08:51:22;;;;;;;;;0.00;0.00;;;;;18.87;75.11;100627.19;2385050;28;46602;-83
2022/10/15 08:52:43;;;;;;;;;0.50;0.00;;;;;18.85;74.84;100624.66;2388730;28;45399;-84
2022/10/15 08:54:03;;;;;;;;;0.25;0.00;;;;;18.83;75.20;100631.91;2388258;28;46294;-85
2022/10/15 08:55:20;;;;;;;;;0.00;0.00;;;;;18.83;74.83;100637.22;2378346;28;44728;-84
2022/10/15 08:56:35;;;;;;;;;0.00;0.00;;;;;18.82;74.88;100646.16;2377172;28;47519;-84
2022/10/15 08:58:13;;;;;;;;;0.75;0.00;;;;;18.81;74.64;100639.16;2383508;28;45338;-84
2022/10/15 08:59:40;;;;;;;;;0.00;0.00;;;;;18.80;74.67;100631.25;2385374;28;45598;-85
2022/10/15 09:00:56;;;;;;;;;0.00;0.00;;;;;18.77;75.51;100632.31;2376726;28;45456;-84
2022/10/15 09:02:18;;;;;;;;;0.00;0.00;;;;;18.78;75.22;100629.56;2382565;28;45544;-84
2022/10/15 09:03:50;;;;;;;;;1.00;0.00;;;;;18.76;75.25;100626.16;2390359;28;44818;-85
2022/10/15 09:05:26;;;;;;;;;0.00;0.00;;;;;18.78;74.94;100628.72;2392504;28;46675;-85
2022/10/15 09:06:38;;;;;;;;;0.00;0.00;;;;;18.77;75.12;100633.16;2393367;28;45163;-88
2022/10/15 09:08:03;;;;;;;;;0.25;0.25;;;;;18.77;75.44;100638.50;2379282;28;48098;-86
2022/10/15 09:09:32;;;;;;;;;0.00;0.00;;;;;18.77;75.13;100641.16;2372030;28;45288;-85
2022/10/15 09:10:52;;;;;;;;;0.00;0.00;;;;;18.77;75.07;100638.50;2388436;28;45535;-85
2022/10/15 09:12:17;;;;;;;;;0.00;0.00;;;;;18.77;75.00;100645.63;2391624;28;44811;-85
2022/10/15 09:13:39;;;;;;;;;0.00;0.00;;;;;18.76;74.93;100650.13;2387689;28;45445;-84
2022/10/15 09:14:50;;;;;;;;;0.00;0.00;;;;;18.75;74.78;100647.53;2387394;28;45215;-84
2022/10/15 09:16:09;;;;;;;;;0.00;0.00;;;;;18.77;74.95;100648.28;2383995;28;46216;-83
2022/10/15 09:17:26;;;;;;;;;0.00;0.00;;;;;18.77;74.69;100653.63;2393345;28;45222;-84
2022/10/15 09:18:40;;;;;;;;;0.00;0.00;;;;;18.77;74.92;100654.47;2393034;28;46534;-85
2022/10/15 09:19:54;;;;;;;;;0.00;0.00;;;;;18.74;74.82;100645.88;2392859;28;45294;-84
2022/10/15 09:21:04;;;;;;;;;1.00;0.00;;;;;18.75;74.80;100650.22;2393135;28;45339;-84
2022/10/15 09:22:18;;;;;;;;;0.00;0.00;;;;;18.76;74.65;100644.81;2390754;28;45488;-84
2022/10/15 09:23:31;;;;;;;;;0.00;0.00;;;;;18.76;74.41;100654.59;2383860;28;46319;-82
2022/10/15 09:24:41;;;;;;;;;0.00;0.00;;;;;18.75;74.86;100659.06;2389049;28;45572;-81
2022/10/15 09:26:22;;;;;;;;;0.00;0.00;;;;;18.78;74.85;100660.66;2392984;28;45389;-82
2022/10/15 09:27:35;;;;;;;;;0.00;0.00;;;;;18.82;75.08;100667.47;2385911;28;45490;-83
2022/10/15 09:29:07;;;;;;;;;0.00;0.00;;;;;18.81;75.01;100668.44;2389853;28;45399;-83
2022/10/15 09:30:37;;;;;;;;;0.25;0.00;;;;;18.82;74.53;100662.13;2393079;28;45195;-83
2022/10/15 09:32:12;;;;;;;;;1.00;0.50;;;;;18.84;74.84;100657.56;2382405;28;47968;-83
2022/10/15 09:33:38;;;;;;;;;0.00;0.00;;;;;18.87;74.93;100667.13;2375369;28;46310;-84
2022/10/15 09:34:53;;;;;;;;;0.00;0.00;;;;;18.88;74.70;100664.38;2387940;28;46544;-84
2022/10/15 09:36:16;;;;;;;;;0.00;0.00;;;;;18.90;74.49;100664.28;2394038;28;44699;-84
2022/10/15 09:37:41;;;;;;;;;0.00;0.00;;;;;18.89;74.51;100666.06;2387384;28;46364;-83
2022/10/15 09:39:04;;;;;;;;;0.00;0.00;;;;;18.92;74.73;100680.13;2390823;28;44796;-84
2022/10/15 09:40:45;;;;;;;;;0.00;0.00;;;;;18.87;74.43;100673.31;2394252;28;46418;-84
2022/10/15 09:42:15;;;;;;;;;1.50;0.00;;;;;18.93;74.30;100664.06;2394656;28;45385;-83
2022/10/15 09:43:33;;;;;;;;;0.00;0.00;;;;;18.93;74.17;100673.84;2394465;28;45272;-84
2022/10/15 09:44:46;;;;;;;;;0.00;0.00;;;;;18.94;74.10;100667.59;2383763;28;45290;-83
2022/10/15 09:45:56;;;;;;;;;0.00;0.00;;;;;18.95;73.92;100675.47;2385347;28;46913;-83
2022/10/15 09:47:30;;;;;;;;;0.00;0.00;;;;;18.97;73.94;100675.34;2385575;28;45185;-83
2022/10/15 09:48:55;;;;;;;;;0.75;0.00;;;;;18.98;74.04;100672.59;2389499;28;45441;-83
2022/10/15 09:50:09;;;;;;;;;0.00;0.00;;;;;19.03;73.12;100669.59;2384505;28;45317;-83
2022/10/15 09:51:38;;;;;;;;;0.00;0.00;;;;;19.03;73.76;100672.25;2387751;28;45569;-83
2022/10/15 09:52:51;;;;;;;;;0.00;0.00;;;;;19.06;73.53;100677.34;2393941;28;45151;-83
2022/10/15 09:54:28;;;;;;;;;1.00;0.00;;;;;19.07;73.20;100668.41;2383935;28;48539;-83
2022/10/15 09:56:13;;;;;;;;;0.25;0.00;;;;;19.06;73.67;100665.88;2378691;28;45693;-84
2022/10/15 09:57:24;;;;;;;;;0.00;0.00;;;;;19.06;73.71;100669.34;2367446;28;46195;-83
2022/10/15 09:58:56;;;;;;;;;0.00;0.00;;;;;19.10;73.59;100681.53;2385315;28;44779;-83
2022/10/15 10:00:09;;;;;;;;;0.00;0.00;;;;;19.11;73.36;100679.72;2385836;28;46581;-84
2022/10/15 10:01:22;;;;;;;;;0.00;0.00;;;;;19.12;73.28;100690.25;2393113;28;44770;-84
2022/10/15 10:02:32;;;;;;;;;0.25;0.25;;;;;19.17;73.25;100691.72;2384325;28;47328;-84
2022/10/15 10:03:43;;;;;;;;;0.00;0.00;;;;;19.20;73.27;100697.75;2376626;28;45423;-84
2022/10/15 10:04:54;;;;;;;;;0.00;0.00;;;;;19.21;73.36;100701.25;2385707;28;45517;-84
2022/10/15 10:06:14;;;;;;;;;0.00;0.00;;;;;19.22;73.12;100717.13;2392502;28;45408;-84
2022/10/15 10:07:34;;;;;;;;;0.00;0.00;;;;;19.22;73.38;100708.28;2379709;28;48169;-84
2022/10/15 10:08:55;;;;;;;;;0.00;0.00;;;;;19.26;73.23;100716.91;2379290;28;45272;-83
2022/10/15 10:10:25;;;;;;;;;1.00;0.00;;;;;19.28;73.18;100718.50;2390067;28;46430;-83
2022/10/15 10:12:06;;;;;;;;;0.00;0.00;;;;;19.31;73.20;100722.78;2394559;28;45159;-83
2022/10/15 10:13:32;;;;;;;;;0.25;0.00;;;;;19.33;73.50;100710.19;2367853;28;48139;-83
2022/10/15 10:14:54;;;;;;;;;2.25;0.00;;;;;19.36;71.78;100707.28;2380381;28;45412;-86
2022/10/15 10:16:08;;;;;;;;;0.00;0.00;;;;;19.39;72.39;100711.56;2389809;28;45626;-84
2022/10/15 10:17:22;;;;;;;;;0.00;0.00;;;;;19.42;72.62;100711.34;2394520;28;45423;-84
2022/10/15 10:18:32;;;;;;;;;0.00;0.00;;;;;19.49;72.87;100709.94;2384167;28;47096;-84
2022/10/15 10:19:45;;;;;;;;;0.00;0.00;;;;;19.55;72.55;100708.66;2386334;28;45246;-85
2022/10/15 10:21:01;;;;;;;;;0.00;0.00;;;;;19.61;71.78;100713.53;2383832;28;47954;-84
2022/10/15 10:22:17;;;;;;;;;0.00;0.00;;;;;19.66;71.93;100715.84;2387986;28;45371;-85
2022/10/15 10:23:30;;;;;;;;;0.00;0.00;;;;;19.67;71.83;100710.44;2394286;28;45538;-85
2022/10/15 10:24:41;;;;;;;;;0.00;0.00;;;;;19.72;71.44;100709.25;2394280;28;45380;-85
2022/10/15 10:25:56;;;;;;;;;0.00;0.00;;;;;19.73;70.68;100713.63;2393796;28;46310;-86
2022/10/15 10:27:21;;;;;;;;;0.00;0.00;;;;;19.75;70.50;100715.22;2384161;28;45338;-84
2022/10/15 10:28:55;;;;;;;;;0.00;0.00;;;;;19.76;70.84;100722.22;2389175;28;46457;-85
2022/10/15 10:30:06;;;;;;;;;1.50;0.00;;;;;19.71;68.39;100728.84;2393062;28;45287;-85
2022/10/15 10:31:17;;;;;;;;;0.00;0.00;;;;;19.73;69.79;100717.13;2393084;28;45248;-84
2022/10/15 10:32:31;;;;;;;;;1.00;0.00;;;;;19.73;69.45;100722.44;2386701;28;45236;-84
2022/10/15 10:33:46;;;;;;;;;0.00;0.00;;;;;19.76;70.25;100716.91;2374598;28;47274;-84
2022/10/15 10:35:00;;;;;;;;;0.00;0.00;;;;;19.79;69.24;100726.50;2380207;28;45365;-84
2022/10/15 10:36:29;;;;;;;;;0.00;0.00;;;;;19.82;69.64;100725.41;2394095;28;46297;-83
2022/10/15 10:37:42;;;;;;;;;0.00;0.00;;;;;19.82;69.68;100728.09;2393047;28;44852;-83
2022/10/15 10:39:14;;;;;;;;;0.00;0.00;;;;;19.84;69.71;100732.34;2382581;28;47392;-82
2022/10/15 10:40:33;;;;;;;;;0.00;0.00;;;;;19.84;68.77;100731.50;2380927;28;45316;-82
2022/10/15 10:41:48;;;;;;;;;0.00;0.00;;;;;19.84;68.71;100734.16;2375279;28;47198;-82
2022/10/15 10:43:16;;;;;;;;;0.00;0.00;;;;;19.82;68.24;100736.09;2378034;28;44684;-82
2022/10/15 10:44:34;;;;;;;;;0.00;0.00;;;;;19.78;68.38;100732.78;2383775;28;45436;-83
2022/10/15 10:45:58;;;;;;;;;0.00;0.00;;;;;19.78;68.50;100733.63;2377573;28;45481;-83
2022/10/15 10:47:12;;;;;;;;;0.00;0.00;;;;;19.78;68.34;100728.31;2383517;28;45449;-83
2022/10/15 10:48:25;;;;;;;;;0.00;0.00;;;;;19.83;68.81;100730.63;2389669;28;44741;-84
2022/10/15 10:49:38;;;;;;;;;0.00;0.00;;;;;19.88;68.92;100724.97;2389668;28;45440;-84
2022/10/15 10:51:01;;;;;;;;;0.00;0.00;;;;;19.92;67.51;100729.13;2387858;28;45177;-85
2022/10/15 10:52:20;;;;;;;;;0.00;0.00;;;;;19.96;68.30;100733.25;2387770;28;46745;-84
2022/10/15 10:53:33;;;;;;;;;0.00;0.00;;;;;19.99;68.44;100733.03;2385354;28;45271;-84
2022/10/15 10:54:43;;;;;;;;;0.00;0.00;;;;;20.04;68.52;100729.19;2392462;28;48086;-84
2022/10/15 10:55:55;;;;;;;;;0.00;0.00;;;;;20.05;68.23;100729.06;2383953;28;45376;-84
2022/10/15 10:57:10;;;;;;;;;0.00;0.00;;;;;20.12;68.74;100729.50;2386994;28;45248;-85
2022/10/15 10:58:23;;;;;;;;;0.00;0.00;;;;;20.15;68.07;100731.94;2390057;28;45180;-85
2022/10/15 10:59:41;;;;;;;;;0.50;0.00;;;;;20.17;68.12;100731.84;2388226;28;45726;-85
2022/10/15 11:00:52;;;;;;;;;0.00;0.00;;;;;20.19;68.56;100740.56;2392402;28;44661;-84
2022/10/15 11:02:05;;;;;;;;;0.00;0.00;;;;;20.20;67.96;100739.63;2384871;28;46683;-82
2022/10/15 11:03:21;;;;;;;;;0.00;0.00;;;;;20.24;66.81;100749.94;2388002;28;45228;-82
2022/10/15 11:04:35;;;;;;;;;0.00;0.00;;;;;20.29;68.41;100757.59;2384782;28;45513;-82
2022/10/15 11:05:49;;;;;;;;;0.00;0.00;;;;;20.34;67.75;100747.44;2384718;28;45248;-83
2022/10/15 11:07:04;;;;;;;;;0.00;0.00;;;;;20.43;67.51;100753.91;2384559;28;46501;-82
2022/10/15 11:08:23;;;;;;;;;0.00;0.00;;;;;20.49;67.47;100738.38;2386261;28;45216;-83
2022/10/15 11:09:56;;;;;;;;;0.00;0.00;;;;;20.56;67.22;100744.97;2388051;28;46529;-82
2022/10/15 11:11:07;;;;;;;;;0.00;0.00;;;;;20.60;65.98;100748.22;2375064;28;44708;-83
2022/10/15 11:12:29;;;;;;;;;0.00;0.00;;;;;20.63;66.46;100751.53;2377764;28;45257;-83
2022/10/15 11:13:53;;;;;;;;;0.00;0.00;;;;;20.65;66.40;100744.25;2391129;28;44777;-84
2022/10/15 11:15:49;;;;;;;;;0.00;0.00;;;;;20.69;65.83;100752.91;2383631;28;48395;-83
2022/10/15 11:16:59;;;;;;;;;0.00;0.00;;;;;20.74;66.76;100755.22;2390024;28;47383;-83
2022/10/15 11:18:33;;;;;;;;;0.00;0.00;;;;;20.75;63.95;100751.56;2393475;28;46247;-84
2022/10/15 11:20:02;;;;;;;;;0.00;0.00;;;;;20.78;64.73;100743.31;2377204;28;44772;-84
2022/10/15 11:21:12;;;;;;;;;0.00;0.00;;;;;20.85;65.11;100757.03;2374398;28;47076;-83
2022/10/15 11:22:34;;;;;;;;;0.00;0.00;;;;;20.87;64.00;100755.97;2377770;28;45473;-85
2022/10/15 11:23:56;;;;;;;;;1.00;0.00;;;;;20.87;63.16;100761.31;2390653;28;46383;-85
2022/10/15 11:25:48;;;;;;;;;0.00;0.00;;;;;20.79;64.04;100753.88;2386344;28;45245;-86
2022/10/15 11:27:17;;;;;;;;;0.00;0.00;;;;;20.78;64.29;100764.69;2374027;28;47507;-86
2022/10/15 11:29:05;;;;;;;;;0.00;0.00;;;;;20.73;64.76;100759.69;2381246;28;45395;-79
2022/10/15 11:30:33;;;;;;;;;0.00;0.00;;;;;20.68;63.95;100751.19;2388129;28;45295;-80
2022/10/15 11:32:01;;;;;;;;;0.00;0.00;;;;;20.61;63.09;100765.97;2383651;28;45298;-81
2022/10/15 11:33:46;;;;;;;;;0.00;0.00;;;;;20.57;64.64;100755.50;2388952;28;45381;-81
2022/10/15 11:35:24;;;;;;;;;0.00;0.00;;;;;20.55;65.31;100757.44;2383471;28;45267;-81
2022/10/15 11:36:58;;;;;;;;;0.00;0.00;;;;;20.53;64.82;100758.53;2388302;28;45316;-81
2022/10/15 11:38:14;;;;;;;;;0.00;0.00;;;;;20.50;64.92;100766.75;2383219;28;45175;-82
2022/10/15 11:39:32;;;;;;;;;0.00;0.00;;;;;20.49;64.78;100776.63;2393218;28;45246;-80
2022/10/15 11:41:14;;;;;;;;;0.75;0.00;;;;;20.45;64.63;100757.28;2388951;28;45632;-80
2022/10/15 11:42:27;;;;;;;;;0.00;0.00;;;;;20.41;64.55;100765.66;2387775;28;46794;-80
2022/10/15 11:44:15;;;;;;;;;0.00;0.00;;;;;20.41;63.80;100766.50;2384670;28;44929;-81
2022/10/15 11:45:39;;;;;;;;;1.00;0.00;;;;;20.37;64.32;100761.50;2388463;28;46427;-80
2022/10/15 11:47:17;;;;;;;;;0.00;0.00;;;;;20.33;63.18;100764.41;2392116;28;44525;-80
2022/10/15 11:48:30;;;;;;;;;0.00;0.00;;;;;20.32;64.80;100767.19;2387715;28;45578;-80
2022/10/15 11:50:10;;;;;;;;;0.00;0.00;;;;;20.30;64.12;100759.28;2393468;28;45310;-80
2022/10/15 11:51:37;;;;;;;;;0.00;0.00;;;;;20.30;63.49;100761.09;2373606;28;46588;-81
2022/10/15 11:53:03;;;;;;;;;0.00;0.00;;;;;20.28;61.82;100771.91;2384785;28;45221;-81
2022/10/15 11:54:25;;;;;;;;;0.00;0.00;;;;;20.27;62.29;100774.69;2386049;28;45421;-81
2022/10/15 11:55:45;;;;;;;;;0.50;0.00;;;;;20.26;62.82;100781.84;2393797;28;45151;-81
2022/10/15 11:56:59;;;;;;;;;0.00;0.00;;;;;20.27;63.08;100774.69;2393724;28;45216;-81
2022/10/15 11:58:56;;;;;;;;;0.00;0.00;;;;;20.29;62.90;100775.44;2393138;28;45524;-81
2022/10/15 12:00:28;;;;;;;;;0.00;0.00;;;;;20.33;63.23;100774.22;2374084;28;46594;-81
2022/10/15 12:01:51;;;;;;;;;0.00;0.00;;;;;20.38;63.31;100777.41;2389772;28;45228;-81
2022/10/15 12:03:09;;;;;;;;;0.00;0.00;;;;;20.39;61.49;100772.94;2389610;28;45506;-81
2022/10/15 12:04:28;;;;;;;;;0.00;0.00;;;;;20.42;62.14;100786.88;2386024;28;45414;-81
2022/10/15 12:05:46;;;;;;;;;0.00;0.00;;;;;20.41;62.14;100793.19;2393738;28;45321;-80
2022/10/15 12:07:00;;;;;;;;;0.00;0.00;;;;;20.37;59.38;100797.06;2389727;28;45004;-81
2022/10/15 12:08:12;;;;;;;;;0.00;0.00;;;;;20.33;61.82;100800.91;2390998;28;45547;-80
2022/10/15 12:09:34;;;;;;;;;0.00;0.00;;;;;20.27;62.05;100790.72;2393102;28;45461;-81
2022/10/15 12:10:52;;;;;;;;;0.00;0.00;;;;;20.22;62.14;100783.88;2390042;28;45275;-81
2022/10/15 12:12:09;;;;;;;;;0.00;0.00;;;;;20.23;63.42;100788.25;2374268;28;45319;-81
2022/10/15 12:13:39;;;;;;;;;0.00;0.00;;;;;20.23;63.52;100782.91;2386640;28;46568;-82
2022/10/15 12:15:04;;;;;;;;;0.00;0.00;;;;;20.21;63.62;100781.31;2388874;28;45594;-81
2022/10/15 12:16:32;;;;;;;;;0.00;0.00;;;;;20.19;64.29;100773.44;2384205;28;45292;-82
2022/10/15 12:18:02;;;;;;;;;0.00;0.00;;;;;20.22;64.27;100783.88;2378602;28;45465;-81
2022/10/15 12:19:18;;;;;;;;;0.00;0.00;;;;;20.24;64.42;100763.28;2385016;28;45570;-81
2022/10/15 12:20:30;;;;;;;;;1.00;0.00;;;;;20.28;64.68;100763.91;2387522;28;45823;-81
2022/10/15 12:21:53;;;;;;;;;0.00;0.00;;;;;20.33;64.96;100771.56;2384151;28;45379;-82
2022/10/15 12:23:03;;;;;;;;;0.00;0.00;;;;;20.40;64.40;100769.28;2382637;28;45381;-81
2022/10/15 12:24:39;;;;;;;;;0.50;0.00;;;;;20.49;64.52;100778.44;2385972;28;45429;-81
2022/10/15 12:25:50;;;;;;;;;0.00;0.00;;;;;20.51;64.69;100779.16;2393061;28;45471;-81
2022/10/15 12:27:34;;;;;;;;;0.00;0.00;;;;;20.61;65.17;100785.53;2382443;28;45943;-81
2022/10/15 12:28:49;;;;;;;;;0.00;0.00;;;;;20.65;65.27;100780.78;2383493;28;45292;-82
2022/10/15 12:30:02;;;;;;;;;0.25;0.25;;;;;20.72;65.07;100784.69;2371870;28;47585;-80
2022/10/15 12:31:12;;;;;;;;;0.00;0.00;;;;;20.75;65.15;100772.94;2377336;28;45522;-81
2022/10/15 12:32:24;;;;;;;;;0.00;0.00;;;;;20.81;64.75;100780.47;2378071;28;47850;-82
2022/10/15 12:33:48;;;;;;;;;0.00;0.00;;;;;20.86;63.91;100788.16;2386468;28;45307;-82
2022/10/15 12:35:02;;;;;;;;;1.00;0.00;;;;;20.88;64.22;100789.72;2391761;28;45302;-81
2022/10/15 12:36:29;;;;;;;;;0.00;0.00;;;;;20.91;62.45;100785.97;2383521;28;45453;-81
2022/10/15 12:37:42;;;;;;;;;0.00;0.00;;;;;20.89;63.94;100780.72;2386926;28;46264;-81
2022/10/15 12:39:03;;;;;;;;;0.00;0.00;;;;;20.90;64.20;100777.09;2384748;28;45393;-81
2022/10/15 12:40:22;;;;;;;;;0.00;0.00;;;;;20.93;63.96;100768.00;2390077;28;46655;-81
2022/10/15 12:41:45;;;;;;;;;0.00;0.00;;;;;20.95;64.03;100763.38;2393573;28;45186;-88
2022/10/15 12:43:02;;;;;;;;;0.00;0.00;;;;;20.97;63.63;100761.44;2392921;28;45389;-85
2022/10/15 12:44:31;;;;;;;;;0.00;0.00;;;;;20.97;64.35;100765.94;2381807;28;45374;-87
2022/10/15 12:46:09;;;;;;;;;1.00;0.00;;;;;20.95;64.13;100763.38;2386750;28;47585;-87
2022/10/15 12:47:48;;;;;;;;;0.00;0.00;;;;;20.94;63.70;100767.00;2390358;28;45618;-86
2022/10/15 12:48:58;;;;;;;;;0.00;0.00;;;;;20.90;62.42;100763.75;2378299;28;47285;-87
2022/10/15 12:50:20;;;;;;;;;0.00;0.00;;;;;20.87;63.13;100772.00;2385550;28;44663;-86
2022/10/15 12:51:31;;;;;;;;;0.00;0.00;;;;;20.82;61.96;100773.31;2380817;28;48181;-86
2022/10/15 12:53:01;;;;;;;;;0.00;0.00;;;;;20.75;60.88;100767.59;2376220;28;44607;-86
2022/10/15 12:54:43;;;;;;;;;0.00;0.00;;;;;20.68;62.73;100757.38;2374054;28;47095;-87
2022/10/15 12:56:09;;;;;;;;;1.00;0.00;;;;;20.62;63.00;100757.84;2363825;28;45521;-86
2022/10/15 12:57:34;;;;;;;;;0.00;0.00;;;;;20.62;63.76;100752.50;2383277;28;47641;-87
2022/10/15 12:58:50;;;;;;;;;0.00;0.00;;;;;20.63;63.58;100761.34;2388135;28;45205;-86
2022/10/15 13:00:16;;;;;;;;;0.00;0.00;;;;;20.63;63.42;100751.53;2382580;28;47026;-86
2022/10/15 13:01:50;;;;;;;;;0.00;0.00;;;;;20.65;63.21;100748.75;2383096;28;44646;-87
2022/10/15 13:03:32;;;;;;;;;0.00;0.00;;;;;20.66;62.71;100753.13;2379432;28;47111;-87
2022/10/15 13:04:42;;;;;;;;;0.00;0.00;;;;;20.64;61.72;100761.22;2380564;28;45429;-86